createdAt,value
2023-03-13T00:00:13.576Z,346.00
2023-03-13T00:01:13.568Z,344.00
2023-03-13T00:02:13.601Z,344.00
2023-03-13T00:03:13.529Z,344.00
2023-03-13T00:04:13.534Z,345.00
2023-03-13T00:05:13.591Z,346.00
2023-03-13T00:06:13.511Z,346.00
2023-03-13T00:07:13.477Z,344.00
2023-03-13T00:08:13.479Z,344.00
2023-03-13T00:09:13.476Z,342.00
2023-03-13T00:10:13.475Z,341.00
2023-03-13T00:11:13.462Z,343.00
2023-03-13T00:12:13.416Z,341.00
2023-03-13T00:13:13.395Z,344.00
2023-03-13T00:14:13.387Z,344.00
2023-03-13T00:15:13.366Z,344.00
2023-03-13T00:16:13.424Z,342.00
2023-03-13T00:17:13.351Z,343.00
2023-03-13T00:18:13.333Z,344.00
2023-03-13T00:19:13.352Z,343.00
2023-03-13T00:20:13.301Z,342.00
2023-03-13T00:21:13.303Z,339.00
2023-03-13T00:22:13.343Z,338.00
2023-03-13T00:23:13.258Z,337.00
2023-03-13T00:24:13.255Z,337.00
2023-03-13T00:25:13.235Z,336.00
2023-03-13T00:26:13.234Z,337.00
2023-03-13T00:27:13.238Z,340.00
2023-03-13T00:28:13.199Z,342.00
2023-03-13T00:29:13.222Z,341.00
2023-03-13T00:30:13.174Z,342.00
2023-03-13T00:31:13.207Z,345.00
2023-03-13T00:32:13.163Z,344.00
2023-03-13T00:33:13.134Z,343.00
2023-03-13T00:34:13.116Z,342.00
2023-03-13T00:35:13.111Z,340.00
2023-03-13T00:36:13.110Z,341.00
2023-03-13T00:37:13.079Z,343.00
2023-03-13T00:38:13.085Z,343.00
2023-03-13T00:39:13.058Z,345.00
2023-03-13T00:40:13.053Z,343.00
2023-03-13T00:41:13.039Z,340.00
2023-03-13T00:42:13.026Z,341.00
2023-03-13T00:43:13.020Z,341.00
2023-03-13T00:44:13.024Z,344.00
2023-03-13T00:45:13.017Z,344.00
2023-03-13T00:46:13.063Z,342.00
2023-03-13T00:47:13.011Z,343.00
2023-03-13T00:48:13.000Z,345.00
2023-03-13T00:49:12.994Z,343.00
2023-03-13T00:50:12.959Z,342.00
2023-03-13T00:51:12.933Z,342.00
2023-03-13T00:52:12.920Z,342.00
2023-03-13T00:53:12.906Z,343.00
2023-03-13T00:54:12.907Z,344.00
2023-03-13T00:55:12.895Z,346.00
2023-03-13T00:56:12.877Z,344.00
2023-03-13T00:57:12.876Z,343.00
2023-03-13T00:58:12.861Z,344.00
2023-03-13T00:59:12.829Z,343.00
2023-03-13T01:00:12.852Z,341.00
2023-03-13T01:01:12.819Z,339.00
2023-03-13T01:02:12.907Z,339.00
2023-03-13T01:03:12.893Z,339.00
2023-03-13T01:04:12.792Z,336.00
2023-03-13T01:05:12.789Z,337.00
2023-03-13T01:06:12.792Z,338.00
2023-03-13T01:07:12.765Z,341.00
2023-03-13T01:08:12.765Z,338.00
2023-03-13T01:09:12.751Z,338.00
2023-03-13T01:10:12.733Z,338.00
2023-03-13T01:11:12.741Z,341.00
2023-03-13T01:12:12.744Z,342.00
2023-03-13T01:13:12.711Z,338.00
2023-03-13T01:14:12.692Z,340.00
2023-03-13T01:15:12.689Z,338.00
2023-03-13T01:16:12.735Z,338.00
2023-03-13T01:17:12.682Z,338.00
2023-03-13T01:18:12.658Z,338.00
2023-03-13T01:19:13.486Z,338.00
2023-03-13T01:20:12.634Z,338.00
2023-03-13T01:21:12.620Z,339.00
2023-03-13T01:22:12.637Z,339.00
2023-03-13T01:23:12.591Z,337.00
2023-03-13T01:24:12.589Z,334.00
2023-03-13T01:25:12.574Z,332.00
2023-03-13T01:26:12.556Z,334.00
2023-03-13T01:27:12.544Z,334.00
2023-03-13T01:28:12.584Z,338.00
2023-03-13T01:29:12.514Z,337.00
2023-03-13T01:30:12.506Z,339.00
2023-03-13T01:31:12.552Z,339.00
2023-03-13T01:32:12.469Z,339.00
2023-03-13T01:33:12.524Z,339.00
2023-03-13T01:34:12.463Z,339.00
2023-03-13T01:35:12.444Z,341.00
2023-03-13T01:36:12.427Z,342.00
2023-03-13T01:37:12.438Z,344.00
2023-03-13T01:38:12.408Z,343.00
2023-03-13T01:39:12.405Z,343.00
2023-03-13T01:40:12.374Z,341.00
2023-03-13T01:41:12.364Z,340.00
2023-03-13T01:42:12.353Z,341.00
2023-03-13T01:43:20.654Z,343.00
2023-03-13T01:44:13.339Z,344.00
2023-03-13T01:45:12.317Z,345.00
2023-03-13T01:46:12.333Z,345.00
2023-03-13T01:47:12.299Z,347.00
2023-03-13T01:48:12.296Z,351.00
2023-03-13T01:49:12.319Z,351.00
2023-03-13T01:50:12.283Z,351.00
2023-03-13T01:51:12.265Z,351.00
2023-03-13T01:52:12.248Z,352.00
2023-03-13T01:53:12.245Z,350.00
2023-03-13T01:54:12.239Z,350.00
2023-03-13T01:55:12.222Z,348.00
2023-03-13T01:56:12.215Z,348.00
2023-03-13T01:57:12.211Z,348.00
2023-03-13T01:58:12.202Z,352.00
2023-03-13T01:59:12.194Z,351.00
2023-03-13T02:00:12.236Z,352.00
2023-03-13T02:01:12.171Z,351.00
2023-03-13T02:02:12.169Z,349.00
2023-03-13T02:03:12.274Z,348.00
2023-03-13T02:04:12.150Z,346.00
2023-03-13T02:05:12.143Z,348.00
2023-03-13T02:06:12.163Z,347.00
2023-03-13T02:07:12.121Z,347.00
2023-03-13T02:08:12.127Z,347.00
2023-03-13T02:09:12.096Z,347.00
2023-03-13T02:10:12.114Z,347.00
2023-03-13T02:11:12.091Z,350.00
2023-03-13T02:12:12.097Z,349.00
2023-03-13T02:13:12.083Z,351.00
2023-03-13T02:14:12.077Z,350.00
2023-03-13T02:15:12.066Z,351.00
2023-03-13T02:16:12.145Z,350.00
2023-03-13T02:17:12.054Z,352.00
2023-03-13T02:18:12.039Z,349.00
2023-03-13T02:19:12.024Z,348.00
2023-03-13T02:20:12.013Z,348.00
2023-03-13T02:21:12.002Z,347.00
2023-03-13T02:22:11.991Z,349.00
2023-03-13T02:23:11.979Z,348.00
2023-03-13T02:24:11.985Z,349.00
2023-03-13T02:25:11.957Z,349.00
2023-03-13T02:26:11.963Z,342.00
2023-03-13T02:27:11.944Z,342.00
2023-03-13T02:28:11.981Z,340.00
2023-03-13T02:29:11.928Z,340.00
2023-03-13T02:30:11.910Z,336.00
2023-03-13T02:31:12.352Z,337.00
2023-03-13T02:32:11.900Z,337.00
2023-03-13T02:33:11.899Z,339.00
2023-03-13T02:34:11.908Z,345.00
2023-03-13T02:35:11.870Z,345.00
2023-03-13T02:36:11.857Z,345.00
2023-03-13T02:37:11.881Z,344.00
2023-03-13T02:38:11.856Z,344.00
2023-03-13T02:39:11.832Z,345.00
2023-03-13T02:40:11.824Z,344.00
2023-03-13T02:41:11.819Z,345.00
2023-03-13T02:42:11.824Z,347.00
2023-03-13T02:43:11.810Z,346.00
2023-03-13T02:44:11.811Z,349.00
2023-03-13T02:45:11.791Z,348.00
2023-03-13T02:46:11.862Z,348.00
2023-03-13T02:47:11.789Z,346.00
2023-03-13T02:48:11.769Z,344.00
2023-03-13T02:49:11.770Z,345.00
2023-03-13T02:50:11.764Z,343.00
2023-03-13T02:51:11.735Z,340.00
2023-03-13T02:52:11.738Z,337.00
2023-03-13T02:53:11.717Z,340.00
2023-03-13T02:54:11.719Z,344.00
2023-03-13T02:55:11.709Z,346.00
2023-03-13T02:56:11.697Z,346.00
2023-03-13T02:57:11.700Z,345.00
2023-03-13T02:58:11.675Z,343.00
2023-03-13T02:59:11.679Z,346.00
2023-03-13T03:00:11.653Z,348.00
2023-03-13T03:01:11.701Z,345.00
2023-03-13T03:02:11.646Z,346.00
2023-03-13T03:03:11.652Z,344.00
2023-03-13T03:04:11.690Z,342.00
2023-03-13T03:05:11.609Z,343.00
2023-03-13T03:06:11.595Z,346.00
2023-03-13T03:07:11.598Z,345.00
2023-03-13T03:08:11.577Z,346.00
2023-03-13T03:09:11.563Z,344.00
2023-03-13T03:10:11.550Z,345.00
2023-03-13T03:11:11.530Z,343.00
2023-03-13T03:12:11.539Z,342.00
2023-03-13T03:13:11.525Z,342.00
2023-03-13T03:14:11.514Z,344.00
2023-03-13T03:15:11.512Z,346.00
2023-03-13T03:16:11.543Z,346.00
2023-03-13T03:17:11.511Z,345.00
2023-03-13T03:18:11.493Z,346.00
2023-03-13T03:19:11.492Z,345.00
2023-03-13T03:20:11.495Z,343.00
2023-03-13T03:21:11.477Z,341.00
2023-03-13T03:22:11.477Z,340.00
2023-03-13T03:23:11.462Z,338.00
2023-03-13T03:24:11.470Z,337.00
2023-03-13T03:25:11.449Z,341.00
2023-03-13T03:26:11.449Z,343.00
2023-03-13T03:27:11.446Z,343.00
2023-03-13T03:28:11.421Z,343.00
2023-03-13T03:29:11.435Z,343.00
2023-03-13T03:30:11.406Z,343.00
2023-03-13T03:31:11.386Z,342.00
2023-03-13T03:32:11.404Z,345.00
2023-03-13T03:33:11.372Z,344.00
2023-03-13T03:34:11.378Z,347.00
2023-03-13T03:35:11.358Z,344.00
2023-03-13T03:36:11.375Z,343.00
2023-03-13T03:37:11.330Z,340.00
2023-03-13T03:38:11.325Z,339.00
2023-03-13T03:39:11.330Z,339.00
2023-03-13T03:40:11.298Z,341.00
2023-03-13T03:41:11.294Z,339.00
2023-03-13T03:42:11.300Z,337.00
2023-03-13T03:43:11.270Z,334.00
2023-03-13T03:44:11.254Z,335.00
2023-03-13T03:45:11.237Z,334.00
2023-03-13T03:46:11.303Z,337.00
2023-03-13T03:47:11.237Z,335.00
2023-03-13T03:48:11.208Z,335.00
2023-03-13T03:49:11.196Z,336.00
2023-03-13T03:50:11.180Z,339.00
2023-03-13T03:51:11.166Z,342.00
2023-03-13T03:52:11.151Z,342.00
2023-03-13T03:53:11.148Z,342.00
2023-03-13T03:54:11.151Z,341.00
2023-03-13T03:55:11.137Z,342.00
2023-03-13T03:56:11.138Z,338.00
2023-03-13T03:57:11.114Z,336.00
2023-03-13T03:58:11.095Z,338.00
2023-03-13T03:59:11.074Z,336.00
2023-03-13T04:00:11.080Z,336.00
2023-03-13T04:01:11.074Z,340.00
2023-03-13T04:02:11.122Z,341.00
2023-03-13T04:03:11.134Z,344.00
2023-03-13T04:04:11.025Z,348.00
2023-03-13T04:05:11.027Z,348.00
2023-03-13T04:06:11.007Z,348.00
2023-03-13T04:07:11.003Z,347.00
2023-03-13T04:08:10.996Z,344.00
2023-03-13T04:09:10.973Z,342.00
2023-03-13T04:10:10.964Z,344.00
2023-03-13T04:11:10.961Z,343.00
2023-03-13T04:12:10.948Z,344.00
2023-03-13T04:13:10.931Z,344.00
2023-03-13T04:14:10.912Z,342.00
2023-03-13T04:15:10.901Z,342.00
2023-03-13T04:16:10.934Z,340.00
2023-03-13T04:17:10.886Z,339.00
2023-03-13T04:18:10.902Z,337.00
2023-03-13T04:19:10.859Z,335.00
2023-03-13T04:20:10.844Z,336.00
2023-03-13T04:21:10.840Z,335.00
2023-03-13T04:22:10.834Z,335.00
2023-03-13T04:23:10.828Z,333.00
2023-03-13T04:24:10.807Z,330.00
2023-03-13T04:25:10.802Z,330.00
2023-03-13T04:26:10.780Z,330.00
2023-03-13T04:27:10.770Z,332.00
2023-03-13T04:28:10.764Z,333.00
2023-03-13T04:29:10.752Z,333.00
2023-03-13T04:30:10.741Z,331.00
2023-03-13T04:31:10.777Z,331.00
2023-03-13T04:32:10.712Z,330.00
2023-03-13T04:33:10.714Z,332.00
2023-03-13T04:34:10.696Z,333.00
2023-03-13T04:35:10.734Z,332.00
2023-03-13T04:36:10.703Z,333.00
2023-03-13T04:37:10.665Z,332.00
2023-03-13T04:38:10.710Z,331.00
2023-03-13T04:39:10.629Z,329.00
2023-03-13T04:40:10.619Z,329.00
2023-03-13T04:41:10.613Z,329.00
2023-03-13T04:42:10.588Z,331.00
2023-03-13T04:43:10.577Z,333.00
2023-03-13T04:44:10.570Z,334.00
2023-03-13T04:45:10.581Z,332.00
2023-03-13T04:46:10.720Z,333.00
2023-03-13T04:47:10.539Z,330.00
2023-03-13T04:48:10.552Z,331.00
2023-03-13T04:49:10.514Z,330.00
2023-03-13T04:50:10.501Z,332.00
2023-03-13T04:51:10.483Z,333.00
2023-03-13T04:52:10.481Z,334.00
2023-03-13T04:53:10.455Z,337.00
2023-03-13T04:54:10.440Z,337.00
2023-03-13T04:55:10.423Z,337.00
2023-03-13T04:56:10.421Z,335.00
2023-03-13T04:57:10.432Z,336.00
2023-03-13T04:58:10.390Z,337.00
2023-03-13T04:59:10.390Z,334.00
2023-03-13T05:00:10.361Z,331.00
2023-03-13T05:01:10.394Z,335.00
2023-03-13T05:02:10.350Z,337.00
2023-03-13T05:03:10.331Z,338.00
2023-03-13T05:04:10.340Z,338.00
2023-03-13T05:05:10.391Z,336.00
2023-03-13T05:06:10.282Z,339.00
2023-03-13T05:07:10.272Z,341.00
2023-03-13T05:08:10.269Z,343.00
2023-03-13T05:09:10.245Z,343.00
2023-03-13T05:10:10.240Z,343.00
2023-03-13T05:11:10.206Z,346.00
2023-03-13T05:12:10.212Z,348.00
2023-03-13T05:13:10.216Z,347.00
2023-03-13T05:14:10.176Z,346.00
2023-03-13T05:15:10.168Z,345.00
2023-03-13T05:16:10.187Z,346.00
2023-03-13T05:17:10.136Z,344.00
2023-03-13T05:18:10.114Z,343.00
2023-03-13T05:19:10.118Z,340.00
2023-03-13T05:20:10.077Z,342.00
2023-03-13T05:21:10.070Z,339.00
2023-03-13T05:22:10.062Z,339.00
2023-03-13T05:23:10.051Z,340.00
2023-03-13T05:24:10.055Z,340.00
2023-03-13T05:25:10.033Z,343.00
2023-03-13T05:26:10.031Z,342.00
2023-03-13T05:27:10.011Z,343.00
2023-03-13T05:28:09.993Z,344.00
2023-03-13T05:29:09.992Z,346.00
2023-03-13T05:30:09.966Z,345.00
2023-03-13T05:31:09.994Z,343.00
2023-03-13T05:32:09.930Z,344.00
2023-03-13T05:33:09.918Z,344.00
2023-03-13T05:34:09.901Z,344.00
2023-03-13T05:35:09.893Z,345.00
2023-03-13T05:36:09.883Z,344.00
2023-03-13T05:37:09.852Z,346.00
2023-03-13T05:38:09.839Z,345.00
2023-03-13T05:39:09.831Z,347.00
2023-03-13T05:40:09.809Z,348.00
2023-03-13T05:41:09.787Z,348.00
2023-03-13T05:42:09.773Z,348.00
2023-03-13T05:43:09.753Z,347.00
2023-03-13T05:44:09.750Z,347.00
2023-03-13T05:45:09.724Z,348.00
2023-03-13T05:46:09.744Z,345.00
2023-03-13T05:47:09.696Z,344.00
2023-03-13T05:48:09.681Z,344.00
2023-03-13T05:49:09.660Z,344.00
2023-03-13T05:50:09.639Z,342.00
2023-03-13T05:51:09.622Z,340.00
2023-03-13T05:52:09.642Z,341.00
2023-03-13T05:53:09.667Z,339.00
2023-03-13T05:54:09.568Z,337.00
2023-03-13T05:55:09.552Z,336.00
2023-03-13T05:56:09.537Z,336.00
2023-03-13T05:57:09.528Z,336.00
2023-03-13T05:58:09.505Z,340.00
2023-03-13T05:59:09.495Z,340.00
2023-03-13T06:00:09.502Z,341.00
2023-03-13T06:01:09.460Z,341.00
2023-03-13T06:02:09.436Z,340.00
2023-03-13T06:03:09.463Z,342.00
2023-03-13T06:04:09.576Z,340.00
2023-03-13T06:05:09.470Z,341.00
2023-03-13T06:06:09.386Z,340.00
2023-03-13T06:07:09.392Z,341.00
2023-03-13T06:08:09.374Z,343.00
2023-03-13T06:09:09.351Z,342.00
2023-03-13T06:10:09.425Z,342.00
2023-03-13T06:11:09.328Z,339.00
2023-03-13T06:12:09.306Z,339.00
2023-03-13T06:13:19.509Z,340.00
2023-03-13T06:14:10.277Z,338.00
2023-03-13T06:15:11.913Z,336.00
2023-03-13T06:16:09.343Z,337.00
2023-03-13T06:17:09.207Z,338.00
2023-03-13T06:18:09.189Z,338.00
2023-03-13T06:19:09.192Z,338.00
2023-03-13T06:20:09.162Z,339.00
2023-03-13T06:21:09.165Z,339.00
2023-03-13T06:22:09.126Z,336.00
2023-03-13T06:23:09.114Z,341.00
2023-03-13T06:24:09.096Z,341.00
2023-03-13T06:25:09.123Z,343.00
2023-03-13T06:26:09.071Z,346.00
2023-03-13T06:27:09.048Z,346.00
2023-03-13T06:28:09.071Z,345.00
2023-03-13T06:29:09.047Z,344.00
2023-03-13T06:30:09.025Z,344.00
2023-03-13T06:31:09.076Z,342.00
2023-03-13T06:32:09.040Z,340.00
2023-03-13T06:33:09.109Z,340.00
2023-03-13T06:34:09.100Z,340.00
2023-03-13T06:35:08.972Z,340.00
2023-03-13T06:36:08.961Z,341.00
2023-03-13T06:37:08.901Z,340.00
2023-03-13T06:38:09.947Z,341.00
2023-03-13T06:39:08.921Z,349.00
2023-03-13T06:40:08.931Z,446.00
2023-03-13T06:41:08.853Z,482.00
2023-03-13T06:42:08.843Z,526.00
2023-03-13T06:43:08.839Z,536.00
2023-03-13T06:44:08.817Z,599.00
2023-03-13T06:45:08.801Z,627.00
2023-03-13T06:46:08.761Z,676.00
2023-03-13T06:47:09.003Z,677.00
2023-03-13T06:48:08.729Z,751.00
2023-03-13T06:49:08.837Z,752.00
2023-03-13T06:50:08.710Z,751.00
2023-03-13T06:51:08.701Z,775.00
2023-03-13T06:52:08.712Z,791.00
2023-03-13T06:53:08.634Z,810.00
2023-03-13T06:54:08.682Z,826.00
2023-03-13T06:55:08.611Z,847.00
2023-03-13T06:56:08.585Z,907.00
2023-03-13T06:57:08.544Z,916.00
2023-03-13T06:58:10.807Z,919.00
2023-03-13T06:59:09.589Z,953.00
2023-03-13T07:00:08.480Z,976.00
2023-03-13T07:01:08.550Z,980.00
2023-03-13T07:02:08.412Z,992.00
2023-03-13T07:03:08.422Z,1005.00
2023-03-13T07:04:08.561Z,1025.00
2023-03-13T07:05:08.362Z,1051.00
2023-03-13T07:06:08.370Z,1070.00
2023-03-13T07:07:08.293Z,1075.00
2023-03-13T07:08:08.365Z,1100.00
2023-03-13T07:09:08.283Z,1113.00
2023-03-13T07:10:08.241Z,1128.00
2023-03-13T07:11:08.240Z,1145.00
2023-03-13T07:12:08.162Z,1187.00
2023-03-13T07:13:08.301Z,1186.00
2023-03-13T07:14:16.643Z,1198.00
2023-03-13T07:15:09.090Z,1211.00
2023-03-13T07:16:08.079Z,1228.00
2023-03-13T07:17:08.082Z,1246.00
2023-03-13T07:18:07.970Z,1258.00
2023-03-13T07:19:07.974Z,1283.00
2023-03-13T07:20:07.994Z,1296.00
2023-03-13T07:21:07.903Z,1301.00
2023-03-13T07:22:07.841Z,1305.00
2023-03-13T07:23:07.809Z,1319.00
2023-03-13T07:24:08.019Z,1322.00
2023-03-13T07:25:07.758Z,1329.00
2023-03-13T07:26:07.706Z,1337.00
2023-03-13T07:27:08.346Z,1348.00
2023-03-13T07:28:07.645Z,1371.00
2023-03-13T07:29:07.620Z,1394.00
2023-03-13T07:30:07.688Z,1389.00
2023-03-13T07:31:07.674Z,1391.00
2023-03-13T07:32:07.559Z,1421.00
2023-03-13T07:33:07.545Z,1441.00
2023-03-13T07:34:07.446Z,1461.00
2023-03-13T07:35:07.422Z,1498.00
2023-03-13T07:36:07.490Z,1515.00
2023-03-13T07:37:07.364Z,1524.00
2023-03-13T07:38:07.329Z,1528.00
2023-03-13T07:39:07.291Z,1532.00
2023-03-13T07:40:07.250Z,1531.00
2023-03-13T07:41:07.235Z,1536.00
2023-03-13T07:42:07.211Z,1610.00
2023-03-13T07:43:07.163Z,1655.00
2023-03-13T07:44:07.133Z,1662.00
2023-03-13T07:45:07.370Z,1658.00
2023-03-13T07:46:07.093Z,1575.00
2023-03-13T07:47:07.008Z,1566.00
2023-03-13T07:48:06.974Z,1401.00
2023-03-13T07:49:07.010Z,1369.00
2023-03-13T07:50:06.905Z,1355.00
2023-03-13T07:51:06.866Z,1360.00
2023-03-13T07:52:06.772Z,1362.00
2023-03-13T07:53:07.209Z,1360.00
2023-03-13T07:54:06.700Z,1357.00
2023-03-13T07:55:06.712Z,1356.00
2023-03-13T07:56:06.662Z,1354.00
2023-03-13T07:57:06.885Z,1354.00
2023-03-13T07:58:06.637Z,1357.00
2023-03-13T07:59:06.944Z,1348.00
2023-03-13T08:00:06.446Z,1350.00
2023-03-13T08:01:06.516Z,1350.00
2023-03-13T08:02:06.429Z,1347.00
2023-03-13T08:03:06.340Z,1369.00
2023-03-13T08:04:06.420Z,1368.00
2023-03-13T08:05:06.601Z,1375.00
2023-03-13T08:06:06.214Z,1368.00
2023-03-13T08:07:06.667Z,1359.00
2023-03-13T08:08:06.531Z,1361.00
2023-03-13T08:09:06.651Z,1362.00
2023-03-13T08:10:06.101Z,1366.00
2023-03-13T08:11:06.552Z,1410.00
2023-03-13T08:12:06.388Z,1402.00
2023-03-13T08:13:05.938Z,1468.00
2023-03-13T08:14:05.898Z,1455.00
2023-03-13T08:15:06.116Z,1463.00
2023-03-13T08:16:05.803Z,1466.00
2023-03-13T08:17:05.893Z,1470.00
2023-03-13T08:18:05.744Z,1467.00
2023-03-13T08:19:05.704Z,1456.00
2023-03-13T08:20:05.684Z,1448.00
2023-03-13T08:21:05.627Z,1454.00
2023-03-13T08:22:05.594Z,1463.00
2023-03-13T08:23:05.541Z,1483.00
2023-03-13T08:24:05.478Z,1493.00
2023-03-13T08:25:05.612Z,1506.00
2023-03-13T08:26:05.615Z,1506.00
2023-03-13T08:27:05.369Z,1515.00
2023-03-13T08:28:05.308Z,1533.00
2023-03-13T08:29:05.380Z,1548.00
2023-03-13T08:30:05.310Z,1557.00
2023-03-13T08:31:05.220Z,1571.00
2023-03-13T08:32:05.148Z,1614.00
2023-03-13T08:33:07.552Z,1599.00
2023-03-13T08:34:05.347Z,1586.00
2023-03-13T08:35:05.259Z,1583.00
2023-03-13T08:36:05.331Z,1641.00
2023-03-13T08:37:05.201Z,1483.00
2023-03-13T08:38:05.153Z,1657.00
2023-03-13T08:39:05.128Z,1683.00
2023-03-13T08:40:05.164Z,1517.00
2023-03-13T08:41:05.054Z,1557.00
2023-03-13T08:42:05.042Z,1573.00
2023-03-13T08:43:04.957Z,1583.00
2023-03-13T08:44:04.929Z,1583.00
2023-03-13T08:45:04.932Z,1583.00
2023-03-13T08:46:04.950Z,1576.00
2023-03-13T08:47:04.848Z,1563.00
2023-03-13T08:48:04.784Z,1564.00
2023-03-13T08:49:04.725Z,1569.00
2023-03-13T08:50:04.697Z,1569.00
2023-03-13T08:51:04.642Z,1581.00
2023-03-13T08:52:04.608Z,1582.00
2023-03-13T08:53:04.566Z,1586.00
2023-03-13T08:54:04.533Z,1585.00
2023-03-13T08:55:04.475Z,1593.00
2023-03-13T08:56:04.451Z,1604.00
2023-03-13T08:57:04.416Z,1606.00
2023-03-13T08:58:04.357Z,1630.00
2023-03-13T08:59:04.376Z,1645.00
2023-03-13T09:00:04.304Z,1636.00
2023-03-13T09:01:04.219Z,1631.00
2023-03-13T09:02:04.336Z,1639.00
2023-03-13T09:03:04.145Z,1632.00
2023-03-13T09:04:04.832Z,1638.00
2023-03-13T09:05:04.060Z,1633.00
2023-03-13T09:06:04.020Z,1642.00
2023-03-13T09:07:03.981Z,1663.00
2023-03-13T09:08:03.973Z,1666.00
2023-03-13T09:09:03.890Z,1671.00
2023-03-13T09:10:03.915Z,1675.00
2023-03-13T09:11:03.798Z,1677.00
2023-03-13T09:12:03.842Z,1679.00
2023-03-13T09:13:03.732Z,1682.00
2023-03-13T09:14:03.692Z,1684.00
2023-03-13T09:15:03.630Z,1692.00
2023-03-13T09:16:03.768Z,1695.00
2023-03-13T09:17:03.558Z,1705.00
2023-03-13T09:18:03.631Z,1712.00
2023-03-13T09:19:03.540Z,1721.00
2023-03-13T09:20:03.434Z,1719.00
2023-03-13T09:21:03.360Z,1718.00
2023-03-13T09:22:03.324Z,1719.00
2023-03-13T09:23:03.252Z,1722.00
2023-03-13T09:24:03.291Z,1727.00
2023-03-13T09:25:03.194Z,1732.00
2023-03-13T09:26:03.162Z,1726.00
2023-03-13T09:27:03.137Z,1728.00
2023-03-13T09:28:03.113Z,1726.00
2023-03-13T09:29:03.075Z,1727.00
2023-03-13T09:30:02.963Z,1735.00
2023-03-13T09:31:02.942Z,1827.00
2023-03-13T09:32:02.902Z,1871.00
2023-03-13T09:33:02.992Z,1879.00
2023-03-13T09:34:02.815Z,1803.00
2023-03-13T09:35:02.738Z,1698.00
2023-03-13T09:36:02.851Z,1691.00
2023-03-13T09:37:02.748Z,1403.00
2023-03-13T09:38:02.626Z,1365.00
2023-03-13T09:39:02.577Z,1293.00
2023-03-13T09:40:02.552Z,1173.00
2023-03-13T09:41:06.343Z,1118.00
2023-03-13T09:42:02.449Z,1052.00
2023-03-13T09:43:02.410Z,1017.00
2023-03-13T09:44:02.388Z,971.00
2023-03-13T09:45:02.362Z,939.00
2023-03-13T09:46:02.373Z,903.00
2023-03-13T09:47:02.286Z,864.00
2023-03-13T09:48:02.252Z,845.00
2023-03-13T09:49:02.169Z,810.00
2023-03-13T09:50:02.371Z,783.00
2023-03-13T09:51:02.083Z,770.00
2023-03-13T09:52:02.120Z,760.00
2023-03-13T09:53:02.015Z,741.00
2023-03-13T09:54:01.983Z,713.00
2023-03-13T09:55:01.942Z,693.00
2023-03-13T09:56:01.907Z,681.00
2023-03-13T09:57:01.873Z,676.00
2023-03-13T09:58:02.010Z,669.00
2023-03-13T09:59:01.820Z,659.00
2023-03-13T10:00:01.859Z,646.00
2023-03-13T10:01:01.787Z,634.00
2023-03-13T10:02:01.884Z,629.00
2023-03-13T10:03:01.758Z,625.00
2023-03-13T10:04:01.677Z,618.00
2023-03-13T10:05:01.711Z,609.00
2023-03-13T10:06:02.483Z,601.00
2023-03-13T10:07:01.593Z,597.00
2023-03-13T10:08:01.580Z,592.00
2023-03-13T10:09:01.802Z,590.00
2023-03-13T10:10:01.510Z,586.00
2023-03-13T10:11:01.463Z,577.00
2023-03-13T10:12:01.558Z,567.00
2023-03-13T10:13:01.438Z,567.00
2023-03-13T10:14:01.372Z,565.00
2023-03-13T10:15:01.353Z,568.00
2023-03-13T10:16:01.375Z,562.00
2023-03-13T10:17:01.273Z,559.00
2023-03-13T10:18:01.259Z,556.00
2023-03-13T10:19:01.225Z,553.00
2023-03-13T10:20:01.199Z,550.00
2023-03-13T10:21:01.199Z,544.00
2023-03-13T10:22:01.162Z,533.00
2023-03-13T10:23:01.138Z,528.00
2023-03-13T10:24:01.074Z,525.00
2023-03-13T10:25:01.078Z,525.00
2023-03-13T10:26:01.032Z,524.00
2023-03-13T10:27:01.080Z,521.00
2023-03-13T10:28:01.022Z,519.00
2023-03-13T10:29:00.980Z,514.00
2023-03-13T10:30:00.965Z,508.00
2023-03-13T10:31:00.977Z,505.00
2023-03-13T10:32:00.909Z,500.00
2023-03-13T10:33:01.136Z,499.00
2023-03-13T10:34:00.818Z,498.00
2023-03-13T10:35:00.880Z,497.00
2023-03-13T10:36:00.849Z,494.00
2023-03-13T10:37:00.755Z,491.00
2023-03-13T10:38:00.728Z,492.00
2023-03-13T10:39:00.672Z,496.00
2023-03-13T10:40:00.636Z,497.00
2023-03-13T10:41:00.609Z,504.00
2023-03-13T10:42:00.573Z,519.00
2023-03-13T10:43:00.580Z,611.00
2023-03-13T10:44:00.518Z,717.00
2023-03-13T10:45:00.585Z,656.00
2023-03-13T10:46:00.485Z,683.00
2023-03-13T10:47:00.561Z,643.00
2023-03-13T10:48:00.415Z,664.00
2023-03-13T10:49:00.446Z,674.00
2023-03-13T10:50:00.432Z,678.00
2023-03-13T10:51:02.366Z,698.00
2023-03-13T10:52:00.516Z,694.00
2023-03-13T10:53:00.510Z,681.00
2023-03-13T10:54:00.302Z,686.00
2023-03-13T10:55:00.300Z,700.00
2023-03-13T10:56:00.287Z,747.00
2023-03-13T10:57:01.076Z,773.00
2023-03-13T10:58:00.533Z,768.00
2023-03-13T10:59:00.187Z,739.00
2023-03-13T11:00:01.524Z,764.00
2023-03-13T11:01:00.187Z,766.00
2023-03-13T11:02:00.140Z,785.00
2023-03-13T11:03:01.057Z,815.00
2023-03-13T11:04:00.214Z,829.00
2023-03-13T11:05:00.096Z,837.00
2023-03-13T11:06:00.156Z,835.00
2023-03-13T11:07:00.074Z,814.00
2023-03-13T11:08:00.060Z,849.00
2023-03-13T11:09:00.045Z,860.00
2023-03-13T11:09:59.941Z,863.00
2023-03-13T11:10:59.904Z,859.00
2023-03-13T11:11:59.870Z,854.00
2023-03-13T11:12:59.877Z,854.00
2023-03-13T11:13:59.864Z,855.00
2023-03-13T11:14:59.911Z,867.00
2023-03-13T11:15:59.912Z,885.00
2023-03-13T11:16:59.780Z,948.00
2023-03-13T11:17:59.751Z,955.00
2023-03-13T11:18:59.717Z,971.00
2023-03-13T11:19:59.688Z,976.00
2023-03-13T11:21:12.165Z,1042.00
2023-03-13T11:22:00.669Z,1038.00
2023-03-13T11:22:59.591Z,996.00
2023-03-13T11:23:59.590Z,988.00
2023-03-13T11:24:59.549Z,999.00
2023-03-13T11:26:00.511Z,941.00
2023-03-13T11:27:04.801Z,964.00
2023-03-13T11:28:00.478Z,998.00
2023-03-13T11:28:59.460Z,1026.00
2023-03-13T11:29:59.545Z,1032.00
2023-03-13T11:30:59.396Z,1031.00
2023-03-13T11:31:59.434Z,1026.00
2023-03-13T11:32:59.549Z,952.00
2023-03-13T11:33:59.344Z,976.00
2023-03-13T11:34:59.398Z,1038.00
2023-03-13T11:35:59.316Z,954.00
2023-03-13T11:36:59.251Z,991.00
2023-03-13T11:37:59.236Z,1014.00
2023-03-13T11:38:59.179Z,1024.00
2023-03-13T11:39:59.146Z,1003.00
2023-03-13T11:40:59.104Z,1038.00
2023-03-13T11:41:59.070Z,1052.00
2023-03-13T11:42:59.042Z,1056.00
2023-03-13T11:43:59.519Z,989.00
2023-03-13T11:44:58.971Z,1041.00
2023-03-13T11:45:59.163Z,1059.00
2023-03-13T11:46:58.952Z,1067.00
2023-03-13T11:47:58.873Z,1076.00
2023-03-13T11:48:58.854Z,1074.00
2023-03-13T11:49:58.784Z,1049.00
2023-03-13T11:50:58.784Z,1056.00
2023-03-13T11:51:58.726Z,1089.00
2023-03-13T11:53:58.655Z,1057.00
2023-03-13T11:54:58.623Z,1054.00
2023-03-13T11:55:58.614Z,1059.00
2023-03-13T11:56:58.510Z,1087.00
2023-03-13T11:57:58.478Z,1091.00
2023-03-13T11:58:59.512Z,1100.00
2023-03-13T11:59:58.513Z,1106.00
2023-03-13T12:00:58.408Z,1063.00
2023-03-13T12:01:58.389Z,1048.00
2023-03-13T12:02:58.321Z,1020.00
2023-03-13T12:03:58.399Z,1012.00
2023-03-13T12:04:58.379Z,915.00
2023-03-13T12:05:58.314Z,934.00
2023-03-13T12:06:58.302Z,920.00
2023-03-13T12:07:58.122Z,903.00
2023-03-13T12:08:58.086Z,909.00
2023-03-13T12:09:58.109Z,979.00
2023-03-13T12:10:58.024Z,987.00
2023-03-13T12:11:57.994Z,1000.00
2023-03-13T12:12:58.033Z,1016.00
2023-03-13T12:13:57.967Z,1026.00
2023-03-13T12:14:58.070Z,1087.00
2023-03-13T12:15:57.837Z,1098.00
2023-03-13T12:16:57.837Z,1121.00
2023-03-13T12:17:57.822Z,1134.00
2023-03-13T12:18:57.925Z,1139.00
2023-03-13T12:19:58.046Z,1140.00
2023-03-13T12:20:57.594Z,1154.00
2023-03-13T12:21:57.737Z,1162.00
2023-03-13T12:22:57.526Z,1177.00